Charlestown, MA

7:38 PM EDT on July 27, 2016 (GMT -0400)
Charlestown | | Change Station

Elev 46 ft 42.37 °N, 71.06 °W | Updated 23 seconds ago

Scattered Clouds
Scattered Clouds
80.6 °F
Feels Like 83 °F
N
0.9
Wind Variable Wind from ESE
Gusts 2.5 mph

Today
High -- | Low -- °F
--% Chance of Precip.
Yesterday
High -- | Low -- °F
Precip. -- in
Pressure 29.86 in
Visibility 10.0 miles
Clouds Few 6500 ft
Scattered Clouds 22000 ft
Heat Index 83 °F
Dew Point 66 °F
Humidity 62%
Rainfall 0.00 in
Snow Depth Not available.
5:32 AM 8:08 PM
Last Quarter, 38% visible
METAR KBOS 272254Z 10013KT 10SM FEW065 SCT220 26/18 A2986 RMK AO2 SLP110 T02610183
Pressure 29.86 in
Visibility 10.0 miles
Clouds Few 6500 ft
Scattered Clouds 22000 ft
Heat Index 83 °F
Dew Point 66 °F
Humidity 62%
Rainfall 0.00 in
Snow Depth Not available.
5:32 AM 8:08 PM
Last Quarter, 38% visible
METAR KBOS 272254Z 10013KT 10SM FEW065 SCT220 26/18 A2986 RMK AO2 SLP110 T02610183

10-Day Weather Forecast

Almanac

Astronomy

Jul. 27, 2016 Rise Set
Actual Time
Civil Twilight
Nautical Twilight
Astronomical Twilight
Moon
Length of Visible Light
Length of Day
Tomorrow will be .
, % of the Moon is Illuminated

Today's Extremes

State Highs State Lows

Community

WunderPhotos

Upload Photos

1,927,957 photos uploaded!

WunderBlog® & News

Nearby

Air Quality

  Air Quality AQ Index Pollutant
Not available.

Snow Depth

Station Depth Elevation

Earthquake Activity

City Distance Mag. Time & Date
Minimum magnitude displayed is 2.5.

Coastal Water Temperatures

Place Temperature

Stations

Nearby Weather Stations

Station Location Temp. Windchill Dew Point Humidity Wind Precip. Elev Updated Type
                   

Watches & Warnings

There are currently no watches in effect.